Time;durP1;ratioP1;P1;durP2;ratioP2;P2;SDS_P1;SDS_P2;PMS_P1;PMS_P2;Temp;Humidity;BMP_temperature;BMP_pressure;BME280_temperature;BME280_humidity;BME280_pressure;Samples;Min_cycle;Max_cycle;Signal;HPM_P1;HPM_P2
2021/06/18 00:01:16;;;;;;;11.77;5.07;;;;;;;;;;5101979;27;20020;-39
2021/06/18 00:03:41;;;;;;;8.65;4.13;;;;;;;;;;5100170;27;20101;-40
2021/06/18 00:06:09;;;;;;;14.90;5.50;;;;;;;;;;5097686;27;20130;-39
2021/06/18 00:08:36;;;;;;;14.60;5.05;;;;;;;;;;5098605;27;20027;-39
2021/06/18 00:11:01;;;;;;;11.73;5.00;;;;;;;;;;5103025;27;20110;-39
2021/06/18 00:13:29;;;;;;;12.15;4.95;;;;;;;;;;5101871;27;20526;-40
2021/06/18 00:15:54;;;;;;;10.35;4.20;;;;;;;;;;5102212;27;20022;-39
2021/06/18 00:18:19;;;;;;;7.10;4.15;;;;;;;;;;5104897;27;20028;-40
2021/06/18 00:20:47;;;;;;;11.95;4.82;;;;;;;;;;5102944;27;20015;-39
2021/06/18 00:23:12;;;;;;;9.38;5.22;;;;;;;;;;5096878;27;20027;-40
2021/06/18 00:25:37;;;;;;;4.38;3.97;;;;;;;;;;5096914;27;20492;-39
2021/06/18 00:28:03;;;;;;;12.30;5.97;;;;;;;;;;5100814;27;20489;-39
2021/06/18 00:30:28;;;;;;;8.15;5.65;;;;;;;;;;5096966;27;20118;-39
2021/06/18 00:32:54;;;;;;;12.80;5.07;;;;;;;;;;5098535;27;20549;-39
2021/06/18 00:35:19;;;;;;;10.82;6.43;;;;;;;;;;5095052;27;20055;-39
2021/06/18 00:37:44;;;;;;;17.60;6.82;;;;;;;;;;5097011;28;20798;-40
2021/06/18 00:40:10;;;;;;;9.68;5.05;;;;;;;;;;5103164;27;20030;-39
2021/06/18 00:42:35;;;;;;;8.80;5.25;;;;;;;;;;5096819;27;20016;-39
2021/06/18 00:45:00;;;;;;;6.93;2.88;;;;;;;;;;5102588;27;20041;-39
2021/06/18 00:47:27;;;;;;;12.55;6.28;;;;;;;;;;5103162;27;20059;-39
2021/06/18 00:49:52;;;;;;;12.63;5.32;;;;;;;;;;5104851;27;20058;-38
2021/06/18 00:52:18;;;;;;;21.30;4.57;;;;;;;;;;5100105;27;20484;-39
2021/06/18 00:54:45;;;;;;;10.60;5.20;;;;;;;;;;5097518;27;20043;-39
2021/06/18 00:57:10;;;;;;;9.50;5.13;;;;;;;;;;5098646;27;20081;-39
2021/06/18 00:59:36;;;;;;;9.98;4.80;;;;;;;;;;5100007;27;20024;-39
2021/06/18 01:02:01;;;;;;;10.07;3.22;;;;;;;;;;5095462;27;20406;-40
2021/06/18 01:04:27;;;;;;;13.23;3.50;;;;;;;;;;5104170;27;20424;-39
2021/06/18 01:06:55;;;;;;;7.28;3.72;;;;;;;;;;5097101;27;20051;-39
2021/06/18 01:09:21;;;;;;;15.98;6.45;;;;;;;;;;5096393;28;20038;-39
2021/06/18 01:11:59;;;;;;;8.48;4.88;;;;;;;;;;5101370;27;20035;-39
2021/06/18 01:14:36;;;;;;;15.00;4.97;;;;;;;;;;5100758;27;20107;-39
2021/06/18 01:17:14;;;;;;;7.35;3.63;;;;;;;;;;5102761;27;20024;-39
2021/06/18 01:19:58;;;;;;;13.07;4.57;;;;;;;;;;5100074;28;20019;-42
2021/06/18 01:22:24;;;;;;;6.47;4.80;;;;;;;;;;5099653;27;20062;-41
2021/06/18 01:25:08;;;;;;;8.70;5.18;;;;;;;;;;5099193;28;20113;-39
2021/06/18 01:27:52;;;;;;;6.18;4.80;;;;;;;;;;5101064;28;20023;-40
2021/06/18 01:30:24;;;;;;;15.15;5.13;;;;;;;;;;5097982;28;20052;-39
2021/06/18 01:33:03;;;;;;;5.93;4.93;;;;;;;;;;5106165;28;20510;-40
2021/06/18 01:35:31;;;;;;;7.75;4.43;;;;;;;;;;5104365;28;20412;-39
2021/06/18 01:37:58;;;;;;;16.92;4.72;;;;;;;;;;5106489;27;20479;-40
2021/06/18 01:40:24;;;;;;;13.50;4.55;;;;;;;;;;5111822;27;20475;-39
2021/06/18 01:42:50;;;;;;;8.20;4.35;;;;;;;;;;5105132;27;20015;-39
2021/06/18 01:45:17;;;;;;;10.02;4.25;;;;;;;;;;5104146;27;20020;-40
2021/06/18 01:47:43;;;;;;;7.35;4.82;;;;;;;;;;5099592;27;20552;-39
2021/06/18 01:50:09;;;;;;;8.43;4.18;;;;;;;;;;5107690;27;20023;-39
2021/06/18 01:52:36;;;;;;;15.70;4.97;;;;;;;;;;5104101;28;20015;-40
2021/06/18 01:55:03;;;;;;;10.63;4.18;;;;;;;;;;5102638;27;20051;-40
2021/06/18 01:57:29;;;;;;;7.15;3.75;;;;;;;;;;5104899;27;20118;-39
2021/06/18 01:59:55;;;;;;;10.30;3.33;;;;;;;;;;5107238;27;20065;-40
2021/06/18 02:02:22;;;;;;;5.38;3.63;;;;;;;;;;5106015;27;20464;-39
2021/06/18 02:04:47;;;;;;;6.40;3.58;;;;;;;;;;5107425;27;20031;-40
2021/06/18 02:07:14;;;;;;;6.68;2.20;;;;;;;;;;5100274;27;20109;-39
2021/06/18 02:09:39;;;;;;;5.90;3.83;;;;;;;;;;5104701;27;20030;-41
2021/06/18 02:12:05;;;;;;;7.63;4.72;;;;;;;;;;5111802;27;20003;-39
2021/06/18 02:14:31;;;;;;;9.85;4.18;;;;;;;;;;5112443;27;20619;-42
2021/06/18 02:16:59;;;;;;;7.38;3.50;;;;;;;;;;5110313;27;20050;-40
2021/06/18 02:19:24;;;;;;;16.80;3.67;;;;;;;;;;5103303;27;20223;-39
2021/06/18 02:21:51;;;;;;;8.25;3.97;;;;;;;;;;5103811;27;20612;-40
2021/06/18 02:24:18;;;;;;;8.63;3.22;;;;;;;;;;5099291;27;20043;-40
2021/06/18 02:26:44;;;;;;;6.18;2.08;;;;;;;;;;5105467;27;20541;-39
2021/06/18 02:29:10;;;;;;;5.88;2.70;;;;;;;;;;5111320;27;20023;-40
2021/06/18 02:31:37;;;;;;;5.13;3.58;;;;;;;;;;5114097;27;20423;-39
2021/06/18 02:34:02;;;;;;;3.85;2.35;;;;;;;;;;5112980;27;20563;-41
2021/06/18 02:36:28;;;;;;;10.45;3.42;;;;;;;;;;5109170;27;20055;-41
2021/06/18 02:38:53;;;;;;;5.07;2.25;;;;;;;;;;5100193;27;20912;-39
2021/06/18 02:41:18;;;;;;;3.45;2.25;;;;;;;;;;5100160;27;20471;-40
2021/06/18 02:43:44;;;;;;;8.90;2.92;;;;;;;;;;5103923;27;20031;-39
2021/06/18 02:46:15;;;;;;;4.10;2.22;;;;;;;;;;5105528;27;20027;-39
2021/06/18 02:48:45;;;;;;;4.30;2.42;;;;;;;;;;5106569;27;20031;-40
2021/06/18 02:51:31;;;;;;;4.93;1.90;;;;;;;;;;5099521;27;20028;-39
2021/06/18 02:54:02;;;;;;;4.28;2.88;;;;;;;;;;5067037;27;20050;-39
2021/06/18 02:56:31;;;;;;;12.68;3.33;;;;;;;;;;5099744;27;20020;-38
2021/06/18 02:59:01;;;;;;;10.70;3.17;;;;;;;;;;5099939;27;20027;-37
2021/06/18 03:01:29;;;;;;;13.20;2.20;;;;;;;;;;5107678;27;20633;-39
2021/06/18 03:03:55;;;;;;;7.95;2.90;;;;;;;;;;5106226;27;20034;-41
2021/06/18 03:06:21;;;;;;;5.72;2.78;;;;;;;;;;5111674;27;20051;-38
2021/06/18 03:08:51;;;;;;;8.93;2.72;;;;;;;;;;5104911;27;20031;-38
2021/06/18 03:11:18;;;;;;;7.57;2.45;;;;;;;;;;5106142;27;20698;-37
2021/06/18 03:13:46;;;;;;;6.82;2.50;;;;;;;;;;5105680;27;20053;-38
2021/06/18 03:16:12;;;;;;;8.63;2.92;;;;;;;;;;5102238;27;20032;-38
2021/06/18 03:18:38;;;;;;;12.52;3.80;;;;;;;;;;5108603;27;20478;-38
2021/06/18 03:21:04;;;;;;;7.28;2.63;;;;;;;;;;5115185;27;20156;-39
2021/06/18 03:23:31;;;;;;;6.47;3.17;;;;;;;;;;5104176;27;20102;-39
2021/06/18 03:25:57;;;;;;;3.75;2.60;;;;;;;;;;5101859;27;20024;-38
2021/06/18 03:28:25;;;;;;;10.68;3.92;;;;;;;;;;5103515;27;20666;-37
2021/06/18 03:30:51;;;;;;;9.43;4.18;;;;;;;;;;5102922;27;20504;-37
2021/06/18 03:33:18;;;;;;;15.25;4.22;;;;;;;;;;5099500;27;20527;-38
2021/06/18 03:35:43;;;;;;;4.78;2.63;;;;;;;;;;5098452;27;20028;-37
2021/06/18 03:38:09;;;;;;;2.60;1.55;;;;;;;;;;5101752;27;20533;-38
2021/06/18 03:40:36;;;;;;;5.57;3.00;;;;;;;;;;5104699;27;20023;-38
2021/06/18 03:43:01;;;;;;;7.05;2.15;;;;;;;;;;5104253;27;20391;-38
2021/06/18 03:45:27;;;;;;;11.50;3.65;;;;;;;;;;5103774;27;20016;-38
2021/06/18 03:47:53;;;;;;;4.35;2.00;;;;;;;;;;5103029;27;20032;-38
2021/06/18 03:50:22;;;;;;;6.50;2.20;;;;;;;;;;5107136;27;20028;-39
2021/06/18 03:52:47;;;;;;;6.55;2.15;;;;;;;;;;5098748;27;20466;-40
2021/06/18 03:55:13;;;;;;;3.80;2.60;;;;;;;;;;5109794;27;20034;-38
2021/06/18 03:57:40;;;;;;;3.75;2.33;;;;;;;;;;5111900;27;20050;-38
2021/06/18 04:00:06;;;;;;;8.68;2.90;;;;;;;;;;5105838;27;20029;-54
2021/06/18 04:02:32;;;;;;;7.00;2.60;;;;;;;;;;5105395;27;20127;-54
2021/06/18 04:04:58;;;;;;;4.22;1.75;;;;;;;;;;5103982;27;20487;-53
2021/06/18 04:07:24;;;;;;;25.42;2.45;;;;;;;;;;5096998;27;20499;-53
2021/06/18 04:09:50;;;;;;;7.57;3.05;;;;;;;;;;5099072;27;20023;-52
2021/06/18 04:12:16;;;;;;;9.60;3.13;;;;;;;;;;5103351;27;20077;-53
2021/06/18 04:14:41;;;;;;;3.13;1.98;;;;;;;;;;5100907;27;20101;-56
2021/06/18 04:17:07;;;;;;;6.22;2.50;;;;;;;;;;5105545;27;20023;-48
2021/06/18 04:19:33;;;;;;;4.47;1.88;;;;;;;;;;5102653;27;20103;-52
2021/06/18 04:22:03;;;;;;;4.97;1.67;;;;;;;;;;5102145;27;20515;-51
2021/06/18 04:24:28;;;;;;;3.97;1.70;;;;;;;;;;5105370;27;20024;-52
2021/06/18 04:26:54;;;;;;;2.53;1.70;;;;;;;;;;5107510;27;20020;-52
2021/06/18 04:29:19;;;;;;;3.20;2.05;;;;;;;;;;5106397;27;20496;-52
2021/06/18 04:31:44;;;;;;;5.30;2.40;;;;;;;;;;5106368;27;20081;-51
2021/06/18 04:34:10;;;;;;;18.80;2.22;;;;;;;;;;5104385;27;20031;-55
2021/06/18 04:36:36;;;;;;;12.10;3.88;;;;;;;;;;5101095;27;20031;-54
2021/06/18 04:39:02;;;;;;;12.50;2.90;;;;;;;;;;5099428;27;20020;-54
2021/06/18 04:41:27;;;;;;;7.05;3.20;;;;;;;;;;5105615;27;20102;-53
2021/06/18 04:43:52;;;;;;;6.15;3.10;;;;;;;;;;5102209;27;20024;-50
2021/06/18 04:46:18;;;;;;;4.00;2.50;;;;;;;;;;5102716;27;20039;-54
2021/06/18 04:48:43;;;;;;;5.32;3.42;;;;;;;;;;5104323;27;20587;-50
2021/06/18 04:51:08;;;;;;;3.75;2.30;;;;;;;;;;5103355;27;20051;-53
2021/06/18 04:53:34;;;;;;;6.05;2.92;;;;;;;;;;5100212;27;20070;-54
2021/06/18 04:56:03;;;;;;;9.10;3.75;;;;;;;;;;5101398;27;20087;-51
2021/06/18 04:58:28;;;;;;;8.63;4.15;;;;;;;;;;5102727;27;20042;-53
2021/06/18 05:00:54;;;;;;;3.10;2.80;;;;;;;;;;5099981;27;20526;-48
2021/06/18 05:03:19;;;;;;;6.28;2.58;;;;;;;;;;5099821;27;20109;-52
2021/06/18 05:05:44;;;;;;;6.68;2.83;;;;;;;;;;5101289;27;20069;-52
2021/06/18 05:08:10;;;;;;;10.82;3.00;;;;;;;;;;5095885;27;20435;-55
2021/06/18 05:10:35;;;;;;;6.88;3.50;;;;;;;;;;5099852;27;20398;-54
2021/06/18 05:13:00;;;;;;;7.65;3.33;;;;;;;;;;5108931;27;20051;-53
2021/06/18 05:15:26;;;;;;;7.30;4.03;;;;;;;;;;5110533;27;20387;-52
2021/06/18 05:17:51;;;;;;;5.70;3.70;;;;;;;;;;5108384;28;20077;-52
2021/06/18 05:20:17;;;;;;;6.03;4.25;;;;;;;;;;5099791;27;20130;-53
2021/06/18 05:22:42;;;;;;;13.40;3.65;;;;;;;;;;5096136;28;20092;-54
2021/06/18 05:25:08;;;;;;;8.35;3.67;;;;;;;;;;5101267;28;20016;-54
2021/06/18 05:27:33;;;;;;;6.22;5.63;;;;;;;;;;5099521;28;20027;-53
2021/06/18 05:29:58;;;;;;;13.13;3.55;;;;;;;;;;5104923;27;20682;-53
2021/06/18 05:32:23;;;;;;;5.63;2.92;;;;;;;;;;5102355;28;20044;-51
2021/06/18 05:34:49;;;;;;;6.38;3.58;;;;;;;;;;5100526;28;20036;-52
2021/06/18 05:37:14;;;;;;;3.38;1.90;;;;;;;;;;5097194;28;20050;-43
2021/06/18 05:39:43;;;;;;;7.85;3.22;;;;;;;;;;5100423;28;20028;-49
2021/06/18 05:42:09;;;;;;;9.02;2.65;;;;;;;;;;5098229;28;20547;-51
2021/06/18 05:44:34;;;;;;;2.65;1.73;;;;;;;;;;5102960;28;20051;-51
2021/06/18 05:46:59;;;;;;;4.75;2.83;;;;;;;;;;5107709;28;20519;-51
2021/06/18 05:49:25;;;;;;;9.35;2.30;;;;;;;;;;5107545;28;20491;-51
2021/06/18 05:51:50;;;;;;;5.30;2.20;;;;;;;;;;5102027;28;20024;-46
2021/06/18 05:54:15;;;;;;;8.07;2.50;;;;;;;;;;5101370;28;20024;-44
2021/06/18 05:56:40;;;;;;;16.98;2.33;;;;;;;;;;5097660;28;20024;-56
2021/06/18 05:59:06;;;;;;;4.60;2.20;;;;;;;;;;5100638;28;20115;-43
2021/06/18 06:01:31;;;;;;;15.50;2.88;;;;;;;;;;5095836;28;20479;-42
2021/06/18 06:03:57;;;;;;;3.08;1.63;;;;;;;;;;5105804;28;20020;-42
2021/06/18 06:06:22;;;;;;;15.52;3.92;;;;;;;;;;5102185;28;20048;-42
2021/06/18 06:08:49;;;;;;;6.57;3.22;;;;;;;;;;5103767;28;20031;-43
2021/06/18 06:11:14;;;;;;;8.52;3.75;;;;;;;;;;5101861;28;20031;-44
2021/06/18 06:13:40;;;;;;;8.43;3.35;;;;;;;;;;5098651;28;20530;-42
2021/06/18 06:16:05;;;;;;;7.72;3.33;;;;;;;;;;5103213;27;20082;-43
2021/06/18 06:18:30;;;;;;;13.30;3.63;;;;;;;;;;5111273;27;20055;-43
2021/06/18 06:20:56;;;;;;;4.60;2.13;;;;;;;;;;5102431;27;20027;-43
2021/06/18 06:23:21;;;;;;;12.02;2.95;;;;;;;;;;5101611;27;20020;-45
2021/06/18 06:25:46;;;;;;;6.53;2.38;;;;;;;;;;5107125;27;20012;-42
2021/06/18 06:28:12;;;;;;;5.35;2.15;;;;;;;;;;5105184;27;20030;-45
2021/06/18 06:30:37;;;;;;;10.43;3.30;;;;;;;;;;5106683;27;20081;-47
2021/06/18 06:33:02;;;;;;;6.53;3.97;;;;;;;;;;5100820;27;20058;-50
2021/06/18 06:35:28;;;;;;;16.23;7.47;;;;;;;;;;5100886;27;20020;-51
2021/06/18 06:37:54;;;;;;;29.95;17.77;;;;;;;;;;5099686;27;20523;-48
2021/06/18 06:40:21;;;;;;;20.95;6.40;;;;;;;;;;5105636;27;20746;-51
2021/06/18 06:42:46;;;;;;;10.13;6.07;;;;;;;;;;5107136;27;20438;-49
2021/06/18 06:45:12;;;;;;;12.93;5.53;;;;;;;;;;5108376;27;20103;-48
2021/06/18 06:47:37;;;;;;;8.80;5.47;;;;;;;;;;5101512;27;20027;-50
2021/06/18 06:50:03;;;;;;;23.98;7.75;;;;;;;;;;5102632;27;20036;-47
2021/06/18 06:52:28;;;;;;;16.90;7.07;;;;;;;;;;5100154;27;20023;-48
2021/06/18 06:54:53;;;;;;;22.65;7.53;;;;;;;;;;5100588;27;20020;-47
2021/06/18 06:57:20;;;;;;;19.17;8.75;;;;;;;;;;5110484;27;20019;-47
2021/06/18 06:59:46;;;;;;;9.73;5.85;;;;;;;;;;5111186;27;20637;-50
2021/06/18 07:02:11;;;;;;;13.02;6.72;;;;;;;;;;5102753;27;20031;-46
2021/06/18 07:04:37;;;;;;;16.33;5.95;;;;;;;;;;5101578;27;20140;-47
2021/06/18 07:07:02;;;;;;;23.80;6.35;;;;;;;;;;5101611;27;20044;-49
2021/06/18 07:09:27;;;;;;;7.10;3.28;;;;;;;;;;5106615;27;20024;-49
2021/06/18 07:11:53;;;;;;;9.40;4.00;;;;;;;;;;5096677;27;20028;-47
2021/06/18 07:14:18;;;;;;;8.82;2.60;;;;;;;;;;5100220;27;20031;-48
2021/06/18 07:16:43;;;;;;;6.57;3.72;;;;;;;;;;5102857;27;20052;-50
2021/06/18 07:19:09;;;;;;;10.15;4.22;;;;;;;;;;5103959;27;20035;-47
2021/06/18 07:21:34;;;;;;;3.38;2.40;;;;;;;;;;5102595;27;20019;-47
2021/06/18 07:23:59;;;;;;;9.27;3.42;;;;;;;;;;5106132;27;20020;-48
2021/06/18 07:26:25;;;;;;;14.32;5.00;;;;;;;;;;5110612;27;20534;-48
2021/06/18 07:28:51;;;;;;;19.02;4.00;;;;;;;;;;5112729;27;20027;-52
2021/06/18 07:31:22;;;;;;;10.40;5.55;;;;;;;;;;5112881;27;20153;-49
2021/06/18 07:33:47;;;;;;;8.77;3.63;;;;;;;;;;5109407;27;20058;-50
2021/06/18 07:36:12;;;;;;;13.18;4.55;;;;;;;;;;5101000;27;20058;-49
2021/06/18 07:38:38;;;;;;;8.55;4.38;;;;;;;;;;5102587;27;20027;-46
2021/06/18 07:41:04;;;;;;;8.88;2.72;;;;;;;;;;5105744;27;20018;-45
2021/06/18 07:43:29;;;;;;;7.78;3.67;;;;;;;;;;5106830;27;20012;-47
2021/06/18 07:45:54;;;;;;;9.57;3.75;;;;;;;;;;5103178;27;20059;-45
2021/06/18 07:48:20;;;;;;;7.57;2.75;;;;;;;;;;5103565;27;20118;-49
2021/06/18 07:50:47;;;;;;;8.35;5.20;;;;;;;;;;5098512;28;20012;-46
2021/06/18 07:53:12;;;;;;;23.73;4.55;;;;;;;;;;5105376;27;20469;-47
2021/06/18 07:55:38;;;;;;;6.43;3.33;;;;;;;;;;5101649;27;20030;-46
2021/06/18 07:58:04;;;;;;;8.70;3.35;;;;;;;;;;5101779;27;20035;-49
2021/06/18 08:00:29;;;;;;;7.20;4.70;;;;;;;;;;5101090;27;20383;-55
2021/06/18 08:02:54;;;;;;;12.40;3.72;;;;;;;;;;5100506;27;20031;-53
2021/06/18 08:05:20;;;;;;;20.10;3.85;;;;;;;;;;5102349;27;20024;-52
2021/06/18 08:07:46;;;;;;;11.10;3.00;;;;;;;;;;5106366;27;20047;-51
2021/06/18 08:10:13;;;;;;;11.55;3.38;;;;;;;;;;5105747;27;20085;-54
2021/06/18 08:12:38;;;;;;;18.75;3.42;;;;;;;;;;5100794;27;20095;-52
2021/06/18 08:15:05;;;;;;;37.33;6.97;;;;;;;;;;5102043;27;20482;-55
2021/06/18 08:17:30;;;;;;;26.40;7.10;;;;;;;;;;5096709;27;20030;-54
2021/06/18 08:19:55;;;;;;;17.52;6.88;;;;;;;;;;5101629;27;20028;-51
2021/06/18 08:22:21;;;;;;;24.23;5.90;;;;;;;;;;5102221;27;20466;-51
2021/06/18 08:24:46;;;;;;;22.40;6.28;;;;;;;;;;5094567;27;20454;-55
2021/06/18 08:27:11;;;;;;;7.75;4.35;;;;;;;;;;5097162;27;20652;-53
2021/06/18 08:29:37;;;;;;;9.43;3.38;;;;;;;;;;5098740;27;20027;-48
2021/06/18 08:32:03;;;;;;;6.90;3.30;;;;;;;;;;5101558;27;20255;-46
2021/06/18 08:34:28;;;;;;;6.00;3.00;;;;;;;;;;5102627;27;20502;-51
2021/06/18 08:36:53;;;;;;;29.83;4.57;;;;;;;;;;5101844;27;20030;-49
2021/06/18 08:39:19;;;;;;;10.00;4.15;;;;;;;;;;5098207;27;20544;-47
2021/06/18 08:41:44;;;;;;;22.48;3.67;;;;;;;;;;5099444;27;20385;-47
2021/06/18 08:44:09;;;;;;;14.05;5.15;;;;;;;;;;5101483;27;20409;-50
2021/06/18 08:46:35;;;;;;;7.07;2.70;;;;;;;;;;5102716;27;20019;-47
2021/06/18 08:49:00;;;;;;;8.02;4.40;;;;;;;;;;5096164;27;20525;-55
2021/06/18 08:51:26;;;;;;;19.35;3.13;;;;;;;;;;5093961;27;20051;-51
2021/06/18 08:53:51;;;;;;;5.65;2.58;;;;;;;;;;5093744;27;20575;-56
2021/06/18 08:56:17;;;;;;;10.10;3.15;;;;;;;;;;5099639;27;20507;-56
2021/06/18 08:58:43;;;;;;;18.23;3.40;;;;;;;;;;5100932;27;20434;-56
2021/06/18 09:01:08;;;;;;;7.38;3.25;;;;;;;;;;5093983;27;20474;-57
2021/06/18 09:03:38;;;;;;;7.22;4.18;;;;;;;;;;5099766;27;20016;-53
2021/06/18 09:06:23;;;;;;;3.95;2.83;;;;;;;;;;5091710;27;20531;-51
2021/06/18 09:09:07;;;;;;;6.82;2.35;;;;;;;;;;5097116;27;20034;-56
2021/06/18 09:11:39;;;;;;;17.88;4.10;;;;;;;;;;5092911;27;20030;-54
2021/06/18 09:14:15;;;;;;;7.68;3.55;;;;;;;;;;5107027;27;20019;-48
2021/06/18 09:16:40;;;;;;;11.93;3.47;;;;;;;;;;5108900;27;20019;-53
2021/06/18 09:19:05;;;;;;;9.00;3.67;;;;;;;;;;5101284;27;20148;-55
2021/06/18 09:21:31;;;;;;;5.32;2.83;;;;;;;;;;5097273;28;20023;-53
2021/06/18 09:23:56;;;;;;;10.27;3.15;;;;;;;;;;5101477;27;20028;-54
2021/06/18 09:26:33;;;;;;;5.28;2.88;;;;;;;;;;5098722;27;20534;-55
2021/06/18 09:29:05;;;;;;;7.57;3.45;;;;;;;;;;5099143;28;20064;-56
2021/06/18 09:31:46;;;;;;;7.80;3.63;;;;;;;;;;5099305;28;20023;-56
2021/06/18 09:34:11;;;;;;;;;;;;;;;;;;5103504;28;20036;-52
2021/06/18 09:36:37;;;;;;;3.67;1.92;;;;;;;;;;5095533;28;19908;-55
2021/06/18 09:39:04;;;;;;;9.27;3.75;;;;;;;;;;5097846;28;20032;-55
2021/06/18 09:41:31;;;;;;;9.73;3.58;;;;;;;;;;5104976;28;20030;-56
2021/06/18 09:44:00;;;;;;;11.05;3.80;;;;;;;;;;5099430;28;20388;-56
2021/06/18 09:46:44;;;;;;;11.57;2.53;;;;;;;;;;5095548;28;20027;-56
2021/06/18 09:49:33;;;;;;;21.42;4.00;;;;;;;;;;5106565;28;20497;-55
2021/06/18 09:52:00;;;;;;;14.05;4.65;;;;;;;;;;5087958;28;20169;-56
2021/06/18 09:54:31;;;;;;;13.25;3.90;;;;;;;;;;5096765;28;20038;-54
2021/06/18 09:57:04;;;;;;;9.88;4.00;;;;;;;;;;5101722;28;20047;-53
2021/06/18 09:59:30;;;;;;;7.90;4.03;;;;;;;;;;5102395;27;20032;-53
2021/06/18 10:01:55;;;;;;;14.73;4.07;;;;;;;;;;5100577;27;20019;-56
2021/06/18 10:04:23;;;;;;;10.68;3.40;;;;;;;;;;5103681;27;20131;-56
2021/06/18 10:06:49;;;;;;;5.65;2.80;;;;;;;;;;5104286;27;20062;-54
2021/06/18 10:09:15;;;;;;;14.10;3.65;;;;;;;;;;5100340;27;20028;-57
2021/06/18 10:11:47;;;;;;;10.45;4.05;;;;;;;;;;5099499;27;20038;-57
2021/06/18 10:14:13;;;;;;;8.18;3.10;;;;;;;;;;5100059;27;20035;-57
2021/06/18 10:16:39;;;;;;;9.32;5.15;;;;;;;;;;5099844;27;20024;-54
2021/06/18 10:19:05;;;;;;;8.30;4.18;;;;;;;;;;5104654;27;20039;-56
2021/06/18 10:21:32;;;;;;;10.02;4.30;;;;;;;;;;5100940;27;20016;-54
2021/06/18 10:24:00;;;;;;;16.23;3.70;;;;;;;;;;5102620;27;20080;-55
2021/06/18 10:26:26;;;;;;;7.50;3.60;;;;;;;;;;5105484;27;20034;-56
2021/06/18 10:28:52;;;;;;;5.40;3.72;;;;;;;;;;5104438;27;20024;-57
2021/06/18 10:31:25;;;;;;;6.20;3.88;;;;;;;;;;5104578;27;20028;-56
2021/06/18 10:34:02;;;;;;;4.45;3.28;;;;;;;;;;5103077;27;20046;-57
2021/06/18 10:36:29;;;;;;;8.55;3.70;;;;;;;;;;5097655;27;20012;-57
2021/06/18 10:39:02;;;;;;;8.32;3.13;;;;;;;;;;5105021;27;20024;-57
2021/06/18 10:41:27;;;;;;;10.85;3.92;;;;;;;;;;5108871;27;20018;-56
2021/06/18 10:43:56;;;;;;;13.57;4.20;;;;;;;;;;5116188;27;20027;-56
2021/06/18 10:46:36;;;;;;;6.45;3.50;;;;;;;;;;5112748;27;20021;-57
2021/06/18 10:49:11;;;;;;;7.83;3.67;;;;;;;;;;5105058;27;20031;-57
2021/06/18 10:51:38;;;;;;;50.15;13.73;;;;;;;;;;5097482;27;20543;-55
2021/06/18 10:54:07;;;;;;;34.17;8.68;;;;;;;;;;5103554;27;20052;-56
2021/06/18 10:56:44;;;;;;;17.63;4.00;;;;;;;;;;5100704;27;20019;-56
2021/06/18 10:59:10;;;;;;;52.10;9.98;;;;;;;;;;5099983;27;20186;-57
2021/06/18 11:01:35;;;;;;;29.65;6.32;;;;;;;;;;5102988;27;20432;-57
2021/06/18 11:04:01;;;;;;;21.98;5.82;;;;;;;;;;5106237;27;20174;-57
2021/06/18 11:06:38;;;;;;;10.90;3.63;;;;;;;;;;5101387;27;20043;-57
2021/06/18 11:09:03;;;;;;;43.80;9.85;;;;;;;;;;5108793;27;20023;-57
2021/06/18 11:11:29;;;;;;;22.38;5.63;;;;;;;;;;5104647;27;20077;-57
2021/06/18 11:14:05;;;;;;;18.55;3.50;;;;;;;;;;5104411;27;20076;-57
2021/06/18 11:16:41;;;;;;;22.67;4.07;;;;;;;;;;5107154;27;20022;-57
2021/06/18 11:19:26;;;;;;;8.65;4.40;;;;;;;;;;5108100;27;20173;-57
2021/06/18 11:21:55;;;;;;;8.70;3.40;;;;;;;;;;5103713;27;20020;-57
2021/06/18 11:24:32;;;;;;;12.27;5.10;;;;;;;;;;5099228;27;20036;-57
2021/06/18 11:27:16;;;;;;;7.65;4.35;;;;;;;;;;5096495;27;20108;-56
2021/06/18 11:29:41;;;;;;;10.50;3.50;;;;;;;;;;5100123;27;20481;-57
2021/06/18 11:32:27;;;;;;;8.40;5.18;;;;;;;;;;5099580;27;20056;-57
2021/06/18 11:34:52;;;;;;;15.05;5.10;;;;;;;;;;5107078;27;20024;-57
2021/06/18 11:37:31;;;;;;;18.55;6.93;;;;;;;;;;5103425;27;20088;-57
2021/06/18 11:40:05;;;;;;;8.55;3.55;;;;;;;;;;5102152;27;20068;-56
2021/06/18 11:42:36;;;;;;;52.50;12.63;;;;;;;;;;5109156;27;20099;-46
2021/06/18 11:45:02;;;;;;;12.63;5.97;;;;;;;;;;5101913;27;20425;-47
2021/06/18 11:47:34;;;;;;;18.52;5.45;;;;;;;;;;5103048;27;20128;-47
2021/06/18 11:49:59;;;;;;;10.15;5.40;;;;;;;;;;5103926;27;20027;-47
2021/06/18 11:52:28;;;;;;;12.82;6.82;;;;;;;;;;5099447;27;20015;-47
2021/06/18 11:54:57;;;;;;;7.43;5.07;;;;;;;;;;5102873;27;20024;-49
2021/06/18 11:57:22;;;;;;;12.15;5.00;;;;;;;;;;5110142;27;20675;-48
2021/06/18 11:59:51;;;;;;;24.50;6.15;;;;;;;;;;5107325;27;20028;-50
2021/06/18 12:02:18;;;;;;;13.93;5.90;;;;;;;;;;5095549;27;20028;-46
2021/06/18 12:04:45;;;;;;;12.80;5.00;;;;;;;;;;5102709;27;20023;-49
2021/06/18 12:07:10;;;;;;;73.80;18.58;;;;;;;;;;5102237;27;20499;-48
2021/06/18 12:09:40;;;;;;;18.23;5.80;;;;;;;;;;5104385;27;20083;-50
2021/06/18 12:12:06;;;;;;;8.85;3.58;;;;;;;;;;5108912;27;20028;-47
2021/06/18 12:14:36;;;;;;;13.98;6.15;;;;;;;;;;5106997;27;20032;-46
2021/06/18 12:17:02;;;;;;;18.55;6.10;;;;;;;;;;5110719;27;20083;-51
2021/06/18 12:19:48;;;;;;;8.93;4.38;;;;;;;;;;5106838;27;20028;-51
2021/06/18 12:22:14;;;;;;;13.63;5.55;;;;;;;;;;5101107;27;20042;-50
2021/06/18 12:24:41;;;;;;;20.35;6.88;;;;;;;;;;5101686;27;20111;-52
2021/06/18 12:27:09;;;;;;;11.27;6.85;;;;;;;;;;5112611;27;20015;-52
2021/06/18 12:29:41;;;;;;;18.75;6.43;;;;;;;;;;5107137;27;20030;-51
2021/06/18 12:32:07;;;;;;;8.23;5.10;;;;;;;;;;5107108;27;20110;-50
2021/06/18 12:34:32;;;;;;;10.75;3.65;;;;;;;;;;5104571;27;20760;-46
2021/06/18 12:36:59;;;;;;;12.45;6.93;;;;;;;;;;5100884;27;20028;-52
2021/06/18 12:39:24;;;;;;;8.15;5.55;;;;;;;;;;5103379;27;20052;-50
2021/06/18 12:41:50;;;;;;;11.32;6.10;;;;;;;;;;5094854;27;20016;-51
2021/06/18 12:44:15;;;;;;;35.78;10.25;;;;;;;;;;5101627;27;20482;-47
2021/06/18 12:46:40;;;;;;;9.82;4.78;;;;;;;;;;5098898;27;20094;-46
2021/06/18 12:49:07;;;;;;;45.45;12.15;;;;;;;;;;5104187;27;20023;-47
2021/06/18 12:51:32;;;;;;;14.07;5.70;;;;;;;;;;5106398;27;20088;-49
2021/06/18 12:54:02;;;;;;;12.60;5.07;;;;;;;;;;5106900;27;20561;-51
2021/06/18 12:56:27;;;;;;;17.52;7.88;;;;;;;;;;5110474;27;20015;-49
2021/06/18 12:58:54;;;;;;;44.35;10.75;;;;;;;;;;5108123;27;20035;-50
2021/06/18 13:01:24;;;;;;;23.13;6.22;;;;;;;;;;5112332;27;20094;-47
2021/06/18 13:03:51;;;;;;;8.57;4.93;;;;;;;;;;5110879;27;20015;-46
2021/06/18 13:06:17;;;;;;;20.77;6.13;;;;;;;;;;5100648;27;20029;-48
2021/06/18 13:08:44;;;;;;;18.92;8.45;;;;;;;;;;5105703;27;20030;-50
2021/06/18 13:11:19;;;;;;;36.15;8.60;;;;;;;;;;5108978;27;20023;-52
2021/06/18 13:13:45;;;;;;;16.27;5.43;;;;;;;;;;5102645;27;20039;-47
2021/06/18 13:16:13;;;;;;;37.97;9.98;;;;;;;;;;5096613;27;20767;-52
2021/06/18 13:18:51;;;;;;;32.05;9.30;;;;;;;;;;5105840;27;20047;-51
2021/06/18 13:21:17;;;;;;;15.38;5.15;;;;;;;;;;5101028;27;20026;-50
2021/06/18 13:23:42;;;;;;;10.02;4.25;;;;;;;;;;5107776;28;20442;-51
2021/06/18 13:26:09;;;;;;;19.65;5.93;;;;;;;;;;5109149;28;20469;-50
2021/06/18 13:28:46;;;;;;;13.18;4.10;;;;;;;;;;5111155;28;20022;-48
2021/06/18 13:31:12;;;;;;;21.88;7.68;;;;;;;;;;5105459;28;20051;-50
2021/06/18 13:33:39;;;;;;;18.65;3.95;;;;;;;;;;5103177;28;20100;-51
2021/06/18 13:36:04;;;;;;;17.80;6.22;;;;;;;;;;5102389;28;20054;-51
2021/06/18 13:38:30;;;;;;;13.55;6.88;;;;;;;;;;5100442;28;20463;-52
2021/06/18 13:40:55;;;;;;;11.88;6.00;;;;;;;;;;5099123;28;20518;-50
2021/06/18 13:43:20;;;;;;;18.33;6.30;;;;;;;;;;5104481;28;20016;-49
2021/06/18 13:45:46;;;;;;;16.73;6.55;;;;;;;;;;5107643;28;20031;-48
2021/06/18 13:48:12;;;;;;;9.77;6.50;;;;;;;;;;5111612;27;20073;-49
2021/06/18 13:50:42;;;;;;;11.98;5.50;;;;;;;;;;5097932;28;20127;-46
2021/06/18 13:53:08;;;;;;;6.20;3.45;;;;;;;;;;5099432;28;20051;-51
2021/06/18 13:55:33;;;;;;;15.55;6.20;;;;;;;;;;5104671;28;20125;-49
2021/06/18 13:57:59;;;;;;;10.73;3.53;;;;;;;;;;5107373;27;20395;-50
2021/06/18 14:00:24;;;;;;;15.85;3.80;;;;;;;;;;5103493;27;20081;-47
2021/06/18 14:02:49;;;;;;;10.77;5.13;;;;;;;;;;5100229;28;20562;-49
2021/06/18 14:05:15;;;;;;;8.10;3.90;;;;;;;;;;5101315;28;20068;-48
2021/06/18 14:07:40;;;;;;;8.45;3.22;;;;;;;;;;5099849;28;20085;-46
2021/06/18 14:10:06;;;;;;;6.88;4.60;;;;;;;;;;5098016;28;20026;-47
2021/06/18 14:12:34;;;;;;;6.10;3.90;;;;;;;;;;5107693;28;20167;-47
2021/06/18 14:17:28;;;;;;;6.18;3.67;;;;;;;;;;5110894;28;20020;-51
2021/06/18 14:19:54;;;;;;;13.55;5.47;;;;;;;;;;5106641;27;20027;-48
2021/06/18 14:22:19;;;;;;;6.07;3.13;;;;;;;;;;5103865;28;20072;-54
2021/06/18 14:24:44;;;;;;;6.15;2.33;;;;;;;;;;5104482;28;20111;-47
2021/06/18 14:27:10;;;;;;;9.05;3.55;;;;;;;;;;5097694;28;20367;-44
2021/06/18 14:29:36;;;;;;;15.00;5.68;;;;;;;;;;5097079;28;20517;-47
2021/06/18 14:32:03;;;;;;;14.23;5.00;;;;;;;;;;5097412;28;20036;-44
2021/06/18 14:34:28;;;;;;;10.90;3.22;;;;;;;;;;5096817;28;20051;-46
2021/06/18 14:36:54;;;;;;;4.78;2.20;;;;;;;;;;5099814;28;20470;-46
2021/06/18 14:39:19;;;;;;;14.98;5.85;;;;;;;;;;5103334;28;20106;-46